createdAt,value
2023-01-13T00:00:34.603Z,99624.94
2023-01-13T00:03:20.199Z,99621.47
2023-01-13T00:06:06.419Z,99630.94
2023-01-13T00:08:52.446Z,99626.63
2023-01-13T00:11:37.848Z,99621.53
2023-01-13T00:14:22.697Z,99623.22
2023-01-13T00:17:07.770Z,99618.91
2023-01-13T00:19:52.990Z,99612.03
2023-01-13T00:22:37.991Z,99615.53
2023-01-13T00:25:23.363Z,99634.47
2023-01-13T00:28:09.431Z,99619.03
2023-01-13T00:30:54.909Z,99641.38
2023-01-13T00:33:40.636Z,99619.91
2023-01-13T00:36:26.485Z,99621.59
2023-01-13T00:39:11.789Z,99605.28
2023-01-13T00:41:56.673Z,99619.88
2023-01-13T00:44:41.604Z,99599.22
2023-01-13T00:47:26.927Z,99578.53
2023-01-13T00:50:11.862Z,99577.66
2023-01-13T00:52:59.986Z,99570.75
2023-01-13T00:55:45.178Z,99576.75
2023-01-13T00:58:32.627Z,99556.13
2023-01-13T01:01:21.306Z,99565.50
2023-01-13T01:04:07.013Z,99571.56
2023-01-13T01:06:52.072Z,99566.34
2023-01-13T01:09:37.021Z,99570.66
2023-01-13T01:12:22.003Z,99569.81
2023-01-13T01:15:07.578Z,99561.16
2023-01-13T01:17:52.857Z,99566.38
2023-01-13T01:20:37.894Z,99558.66
2023-01-13T01:23:23.092Z,99547.44
2023-01-13T01:26:10.585Z,99548.25
2023-01-13T01:28:56.093Z,99555.09
2023-01-13T01:31:41.216Z,99576.56
2023-01-13T01:34:26.584Z,99563.69
2023-01-13T01:37:11.437Z,99568.00
2023-01-13T01:39:56.872Z,99576.56
2023-01-13T01:42:42.166Z,99585.97
2023-01-13T01:45:28.217Z,99592.81
2023-01-13T01:48:13.186Z,99575.63
2023-01-13T01:50:58.764Z,99583.28
2023-01-13T01:53:44.030Z,99591.94
2023-01-13T01:56:30.081Z,99595.38
2023-01-13T01:59:16.255Z,99587.56
2023-01-13T02:02:02.380Z,99597.84
2023-01-13T02:04:51.483Z,99609.81
2023-01-13T02:07:38.904Z,99606.34
2023-01-13T02:10:26.379Z,99609.03
2023-01-13T02:13:13.030Z,99612.53
2023-01-13T02:16:20.537Z,99618.50
2023-01-13T02:19:25.619Z,99632.31
2023-01-13T02:22:25.870Z,99636.63
2023-01-13T02:25:29.456Z,99635.81
2023-01-13T02:28:52.459Z,99622.06
2023-01-13T02:31:42.828Z,99619.50
2023-01-13T02:34:38.974Z,99624.72
2023-01-13T02:37:31.010Z,99624.75
2023-01-13T02:40:30.635Z,99606.78
2023-01-13T02:43:34.945Z,99592.16
2023-01-13T02:46:41.575Z,99569.72
2023-01-13T02:49:41.057Z,99572.28
2023-01-13T02:52:48.738Z,99562.81
2023-01-13T02:55:42.564Z,99555.88
2023-01-13T02:58:29.870Z,99559.25
2023-01-13T03:01:14.971Z,99561.81
2023-01-13T03:04:11.428Z,99554.06
2023-01-13T03:07:06.169Z,99541.22
2023-01-13T03:10:07.262Z,99542.91
2023-01-13T03:13:16.210Z,99544.56
2023-01-13T03:16:26.559Z,99559.13
2023-01-13T03:19:36.723Z,99540.31
2023-01-13T03:22:31.650Z,99546.34
2023-01-13T03:25:26.697Z,99540.25
2023-01-13T03:28:30.420Z,99551.34
2023-01-13T03:31:24.440Z,99555.59
2023-01-13T03:34:15.600Z,99559.94
2023-01-13T03:37:05.570Z,99550.53
2023-01-13T03:39:57.309Z,99553.94
2023-01-13T03:42:46.979Z,99544.56
2023-01-13T03:45:35.527Z,99539.41
2023-01-13T03:48:23.674Z,99517.09
2023-01-13T03:51:13.936Z,99511.00
2023-01-13T03:54:05.007Z,99514.50
2023-01-13T03:56:57.069Z,99510.13
2023-01-13T03:59:46.579Z,99511.84
2023-01-13T04:02:40.142Z,99530.72
2023-01-13T04:05:27.210Z,99518.56
2023-01-13T04:08:20.311Z,99541.72
2023-01-13T04:11:17.525Z,99549.50
2023-01-13T04:14:04.866Z,99532.34
2023-01-13T04:16:50.035Z,99532.34
2023-01-13T04:19:34.997Z,99527.19
2023-01-13T04:22:19.979Z,99531.41
2023-01-13T04:25:05.559Z,99535.63
2023-01-13T04:27:50.738Z,99536.47
2023-01-13T04:30:36.853Z,99531.28
2023-01-13T04:33:21.885Z,99530.44
2023-01-13T04:36:07.260Z,99536.44
2023-01-13T04:38:52.517Z,99531.25
2023-01-13T04:41:37.687Z,99544.94
2023-01-13T04:44:22.597Z,99517.47
2023-01-13T04:47:08.122Z,99513.94
2023-01-13T04:49:53.022Z,99505.31
2023-01-13T04:52:38.894Z,99498.44
2023-01-13T04:55:24.992Z,99494.19
2023-01-13T04:58:10.859Z,99489.00
2023-01-13T05:00:56.212Z,99475.28
2023-01-13T05:03:41.493Z,99475.28
2023-01-13T05:06:26.501Z,99472.59
2023-01-13T05:09:11.564Z,99470.03
2023-01-13T05:11:56.656Z,99469.22
2023-01-13T05:14:41.502Z,99475.22
2023-01-13T05:17:27.173Z,99472.69
2023-01-13T05:20:13.295Z,99468.38
2023-01-13T05:22:58.545Z,99471.75
2023-01-13T05:25:44.582Z,99477.63
2023-01-13T05:28:32.623Z,99485.34
2023-01-13T05:31:17.588Z,99487.91
2023-01-13T05:34:02.675Z,99493.84
2023-01-13T05:36:47.475Z,99485.22
2023-01-13T05:39:33.055Z,99500.72
2023-01-13T05:42:18.325Z,99488.00
2023-01-13T05:45:03.903Z,99482.78
2023-01-13T05:47:49.428Z,99481.06
2023-01-13T05:50:34.510Z,99493.13
2023-01-13T05:53:20.648Z,99480.16
2023-01-13T05:56:07.261Z,99493.00
2023-01-13T05:58:52.585Z,99484.50
2023-01-13T06:01:37.510Z,99496.44
2023-01-13T06:04:22.369Z,99469.88
2023-01-13T06:07:07.744Z,99467.31
2023-01-13T06:09:52.512Z,99476.72
2023-01-13T06:12:37.522Z,99469.00
2023-01-13T06:15:23.626Z,99489.59
2023-01-13T06:18:08.946Z,99475.94
2023-01-13T06:20:54.671Z,99486.13
2023-01-13T06:23:39.812Z,99489.56
2023-01-13T06:26:27.653Z,99511.81
2023-01-13T06:29:12.881Z,99490.50
2023-01-13T06:31:58.668Z,99498.97
2023-01-13T06:34:50.328Z,99502.31
2023-01-13T06:37:36.974Z,99531.44
2023-01-13T06:40:22.524Z,99536.75
2023-01-13T06:43:07.537Z,99528.00
2023-01-13T06:45:55.035Z,99557.94
2023-01-13T06:48:39.909Z,99555.59
2023-01-13T06:51:24.732Z,99551.22
2023-01-13T06:54:09.576Z,99562.31
2023-01-13T06:56:54.994Z,99558.03
2023-01-13T06:59:40.254Z,99570.03
2023-01-13T07:02:25.593Z,99582.00
2023-01-13T07:05:11.536Z,99575.06
2023-01-13T07:07:56.720Z,99590.50
2023-01-13T07:10:41.498Z,99594.88
2023-01-13T07:13:26.388Z,99576.81
2023-01-13T07:16:11.856Z,99580.28
2023-01-13T07:18:57.237Z,99585.44
2023-01-13T07:21:42.218Z,99595.69
2023-01-13T07:24:27.132Z,99575.19
2023-01-13T07:27:12.038Z,99584.66
2023-01-13T07:29:57.368Z,99573.59
2023-01-13T07:32:42.359Z,99567.66
2023-01-13T07:35:27.644Z,99570.16
2023-01-13T07:38:12.742Z,99563.31
2023-01-13T07:40:57.989Z,99557.22
2023-01-13T07:43:43.204Z,99570.91
2023-01-13T07:46:28.204Z,99569.34
2023-01-13T07:49:13.849Z,99557.25
2023-01-13T07:51:59.096Z,99548.75
2023-01-13T07:54:44.339Z,99554.72
2023-01-13T07:57:29.307Z,99542.69
2023-01-13T08:00:14.845Z,99529.03
2023-01-13T08:03:00.664Z,99523.88
2023-01-13T08:05:46.173Z,99535.09
2023-01-13T08:08:31.463Z,99514.44
2023-01-13T08:11:17.045Z,99536.00
2023-01-13T08:14:02.276Z,99516.31
2023-01-13T08:16:47.318Z,99505.97
2023-01-13T08:19:32.537Z,99517.97
2023-01-13T08:22:17.509Z,99521.41
2023-01-13T08:25:02.330Z,99517.88
2023-01-13T08:27:49.635Z,99530.69
2023-01-13T08:30:34.681Z,99541.94
2023-01-13T08:33:20.201Z,99527.41
2023-01-13T08:36:07.183Z,99535.94
2023-01-13T08:38:52.679Z,99534.25
2023-01-13T08:41:37.958Z,99530.97
2023-01-13T08:44:27.668Z,99524.88
2023-01-13T08:47:12.895Z,99554.91
2023-01-13T08:49:58.191Z,99549.78
2023-01-13T08:52:43.783Z,99561.78
2023-01-13T08:55:28.858Z,99551.53
2023-01-13T08:58:16.031Z,99556.69
2023-01-13T09:01:05.397Z,99558.41
2023-01-13T09:03:51.994Z,99553.25
2023-01-13T09:06:37.448Z,99570.38
2023-01-13T09:09:22.984Z,99581.53
2023-01-13T09:12:11.897Z,99572.91
2023-01-13T09:14:57.142Z,99570.38
2023-01-13T09:17:42.420Z,99597.06
2023-01-13T09:20:27.991Z,99580.72
2023-01-13T09:23:13.282Z,99581.63
2023-01-13T09:25:58.655Z,99585.91
2023-01-13T09:28:43.478Z,99602.19
2023-01-13T09:31:28.379Z,99597.09
2023-01-13T09:34:16.511Z,99591.03
2023-01-13T09:37:02.730Z,99584.22
2023-01-13T09:39:47.972Z,99580.69
2023-01-13T09:42:46.441Z,99586.75
2023-01-13T09:45:44.004Z,99592.81
2023-01-13T09:48:38.049Z,99571.34
2023-01-13T09:51:31.466Z,99574.75
2023-01-13T09:54:40.730Z,99589.38
2023-01-13T09:57:28.133Z,99555.91
2023-01-13T10:00:21.404Z,99576.53
2023-01-13T10:03:12.875Z,99572.28
2023-01-13T10:06:04.425Z,99564.53
2023-01-13T10:08:50.864Z,99571.41
2023-01-13T10:11:40.419Z,99572.28
2023-01-13T10:14:39.667Z,99562.78
2023-01-13T10:17:39.883Z,99566.19
2023-01-13T10:20:39.519Z,99561.09
2023-01-13T10:23:33.640Z,99565.47
2023-01-13T10:26:55.963Z,99544.06
2023-01-13T10:29:40.885Z,99526.00
2023-01-13T10:32:25.801Z,99526.88
2023-01-13T10:35:11.080Z,99556.94
2023-01-13T10:37:57.775Z,99557.97
2023-01-13T10:40:55.049Z,99545.88
2023-01-13T10:43:43.010Z,99558.72
2023-01-13T10:46:29.934Z,99559.56
2023-01-13T10:49:34.031Z,99557.84
2023-01-13T10:52:29.323Z,99577.53
2023-01-13T10:55:34.304Z,99594.72
2023-01-13T10:58:21.136Z,99589.59
2023-01-13T11:01:06.827Z,99582.75
2023-01-13T11:03:53.752Z,99592.19
2023-01-13T11:06:46.102Z,99595.63
2023-01-13T11:09:32.401Z,99602.47
2023-01-13T11:12:35.303Z,99600.75
2023-01-13T11:15:32.241Z,99599.97
2023-01-13T11:18:42.204Z,99579.34
2023-01-13T11:22:09.691Z,99586.19
2023-01-13T11:25:03.778Z,99563.84
2023-01-13T11:27:51.663Z,99582.75
2023-01-13T11:30:55.731Z,99582.84
2023-01-13T11:33:54.771Z,99571.72
2023-01-13T11:36:47.684Z,99590.63
2023-01-13T11:40:05.424Z,99600.06
2023-01-13T11:43:17.042Z,99583.78
2023-01-13T11:46:02.648Z,99581.19
2023-01-13T11:48:48.029Z,99604.38
2023-01-13T11:51:40.303Z,99576.13
2023-01-13T11:54:44.227Z,99587.31
2023-01-13T11:57:52.346Z,99578.88
2023-01-13T12:00:55.749Z,99576.31
2023-01-13T12:03:50.231Z,99574.63
2023-01-13T12:06:39.310Z,99562.56
2023-01-13T12:09:48.567Z,99562.59
2023-01-13T12:12:48.508Z,99569.50
2023-01-13T12:15:55.422Z,99584.06
2023-01-13T12:18:59.455Z,99573.72
2023-01-13T12:22:12.400Z,99601.16
2023-01-13T12:25:07.048Z,99614.00
2023-01-13T12:28:04.315Z,99653.28
2023-01-13T12:30:54.070Z,99684.97
2023-01-13T12:34:07.571Z,99694.31
2023-01-13T12:37:08.087Z,99708.06
2023-01-13T12:40:19.370Z,99707.19
2023-01-13T12:43:04.432Z,99726.88
2023-01-13T12:45:49.839Z,99719.97
2023-01-13T12:48:53.532Z,99734.56
2023-01-13T12:52:06.996Z,99722.59
2023-01-13T12:54:51.963Z,99742.28
2023-01-13T12:57:37.046Z,99743.97
2023-01-13T13:00:22.524Z,99746.59
2023-01-13T13:03:07.507Z,99756.78
2023-01-13T13:06:19.125Z,99797.63
2023-01-13T13:09:16.308Z,99774.41
2023-01-13T13:12:30.144Z,99787.16
2023-01-13T13:15:25.432Z,99776.81
2023-01-13T13:18:23.285Z,99787.53
2023-01-13T13:21:10.331Z,99792.19
2023-01-13T13:23:55.357Z,99764.91
2023-01-13T13:26:41.768Z,99773.59
2023-01-13T13:29:41.116Z,99780.34
2023-01-13T13:33:04.202Z,99784.22
2023-01-13T13:36:13.673Z,99829.28
2023-01-13T13:39:22.574Z,99813.72
2023-01-13T13:42:29.837Z,99834.31
2023-01-13T13:45:19.922Z,99838.44
2023-01-13T13:48:28.837Z,99843.47
2023-01-13T13:51:30.270Z,99849.50
2023-01-13T13:54:20.464Z,99847.84
2023-01-13T13:57:14.470Z,99849.56
2023-01-13T14:00:00.757Z,99859.00
2023-01-13T14:02:50.426Z,99858.28
2023-01-13T14:05:37.183Z,99863.38
2023-01-13T14:08:22.948Z,99848.97
2023-01-13T14:11:30.029Z,99855.88
2023-01-13T14:14:15.695Z,99880.81
2023-01-13T14:17:01.207Z,99863.88
2023-01-13T14:19:52.666Z,99858.03
2023-01-13T14:22:38.148Z,99856.31
2023-01-13T14:25:30.919Z,99845.84
2023-01-13T14:28:22.341Z,99845.88
2023-01-13T14:31:09.259Z,99844.94
2023-01-13T14:33:56.946Z,99850.13
2023-01-13T14:36:42.278Z,99854.25
2023-01-13T14:39:38.731Z,99867.81
2023-01-13T14:42:24.437Z,99877.25
2023-01-13T14:45:23.769Z,99878.19
2023-01-13T14:48:09.869Z,99882.84
2023-01-13T14:50:54.833Z,99868.22
2023-01-13T14:53:44.847Z,99872.06
2023-01-13T14:56:49.049Z,99868.66
2023-01-13T14:59:40.062Z,99883.97
2023-01-13T15:02:25.486Z,99894.91
2023-01-13T15:05:17.061Z,99892.44
2023-01-13T15:08:19.463Z,99919.94
2023-01-13T15:11:18.012Z,99925.78
2023-01-13T15:14:09.138Z,99929.13
2023-01-13T15:16:54.085Z,99947.94
2023-01-13T15:19:39.057Z,99959.84
2023-01-13T15:22:24.415Z,99947.78
2023-01-13T15:25:09.692Z,99975.78
2023-01-13T15:27:54.761Z,99984.41
2023-01-13T15:30:39.650Z,99992.06
2023-01-13T15:33:24.775Z,100009.97
2023-01-13T15:36:29.678Z,100000.53
2023-01-13T15:39:14.616Z,100017.56
2023-01-13T15:41:59.576Z,100043.22
2023-01-13T15:44:44.726Z,100039.78
2023-01-13T15:47:29.689Z,100046.69
2023-01-13T15:50:17.268Z,100039.78
2023-01-13T15:53:02.348Z,100042.97
2023-01-13T15:55:52.465Z,100031.31
2023-01-13T15:58:37.746Z,100039.91
2023-01-13T16:01:22.971Z,100053.69
2023-01-13T16:04:09.359Z,100047.63
2023-01-13T16:06:54.420Z,100055.34
2023-01-13T16:09:39.423Z,100070.84
2023-01-13T16:12:24.673Z,100082.16
2023-01-13T16:15:13.155Z,100084.72
2023-01-13T16:18:04.173Z,100065.78
2023-01-13T16:20:50.002Z,100068.31
2023-01-13T16:23:35.163Z,100083.75
2023-01-13T16:26:26.731Z,100081.19
2023-01-13T16:29:11.768Z,100081.09
2023-01-13T16:31:56.730Z,100082.78
2023-01-13T16:34:42.224Z,100092.13
2023-01-13T16:37:27.400Z,100103.41
2023-01-13T16:40:25.529Z,100115.44
2023-01-13T16:43:14.328Z,100111.25
2023-01-13T16:45:59.056Z,100099.22
2023-01-13T16:48:44.251Z,100106.88
2023-01-13T16:51:29.304Z,100119.75
2023-01-13T16:54:14.073Z,100133.44
2023-01-13T16:56:58.879Z,100119.75
2023-01-13T16:59:43.875Z,100132.47
2023-01-13T17:02:29.254Z,100130.81
2023-01-13T17:05:14.660Z,100162.16
2023-01-13T17:07:59.954Z,100175.44
2023-01-13T17:10:46.431Z,100172.72
2023-01-13T17:13:31.430Z,100178.59
2023-01-13T17:16:19.423Z,100175.16
2023-01-13T17:19:04.538Z,100199.28
2023-01-13T17:21:50.219Z,100207.28
2023-01-13T17:24:35.109Z,100199.59
2023-01-13T17:27:19.933Z,100180.00
2023-01-13T17:30:06.741Z,100205.06
2023-01-13T17:32:51.549Z,100193.28
2023-01-13T17:35:39.050Z,100198.41
2023-01-13T17:38:24.099Z,100201.06
2023-01-13T17:41:09.123Z,100208.75
2023-01-13T17:43:53.933Z,100209.91
2023-01-13T17:46:38.833Z,100218.38
2023-01-13T17:49:24.089Z,100227.03
2023-01-13T17:52:09.266Z,100218.34
2023-01-13T17:54:54.198Z,100223.47
2023-01-13T17:57:39.483Z,100224.47
2023-01-13T18:00:24.512Z,100250.31
2023-01-13T18:03:11.204Z,100229.56
2023-01-13T18:06:02.339Z,100250.25
2023-01-13T18:08:48.752Z,100238.31
2023-01-13T18:11:34.320Z,100235.69
2023-01-13T18:14:19.499Z,100234.25
2023-01-13T18:17:04.412Z,100235.16
2023-01-13T18:19:49.976Z,100239.38
2023-01-13T18:22:35.319Z,100240.19
2023-01-13T18:25:21.935Z,100234.97
2023-01-13T18:28:06.914Z,100240.09
2023-01-13T18:30:52.079Z,100254.56
2023-01-13T18:33:37.227Z,100266.63
2023-01-13T18:36:22.303Z,100280.44
2023-01-13T18:39:07.408Z,100260.88
2023-01-13T18:41:52.335Z,100256.66
2023-01-13T18:44:37.414Z,100259.28
2023-01-13T18:47:24.597Z,100263.72
2023-01-13T18:50:10.562Z,100270.72
2023-01-13T18:52:56.173Z,100264.66
2023-01-13T18:55:40.940Z,100244.13
2023-01-13T18:58:25.819Z,100268.78
2023-01-13T19:01:10.666Z,100267.81
2023-01-13T19:04:00.297Z,100267.88
2023-01-13T19:06:46.835Z,100271.56
2023-01-13T19:09:31.916Z,100280.00
2023-01-13T19:12:17.835Z,100282.91
2023-01-13T19:15:03.475Z,100269.25
2023-01-13T19:17:48.719Z,100258.03
2023-01-13T19:20:33.787Z,100269.06
2023-01-13T19:23:18.923Z,100265.69
2023-01-13T19:26:06.851Z,100289.78
2023-01-13T19:28:52.168Z,100272.50
2023-01-13T19:31:36.945Z,100269.19
2023-01-13T19:34:22.548Z,100287.13
2023-01-13T19:37:07.418Z,100300.47
2023-01-13T19:39:52.457Z,100315.75
2023-01-13T19:42:37.382Z,100322.56
2023-01-13T19:45:22.355Z,100331.34
2023-01-13T19:48:07.380Z,100316.75
2023-01-13T19:50:52.172Z,100341.69
2023-01-13T19:53:37.114Z,100340.06
2023-01-13T19:56:22.101Z,100354.41
2023-01-13T19:59:07.143Z,100365.41
2023-01-13T20:01:52.240Z,100372.16
2023-01-13T20:04:37.386Z,100378.13
2023-01-13T20:07:24.679Z,100398.72
2023-01-13T20:10:10.086Z,100390.69
2023-01-13T20:12:55.005Z,100405.78
2023-01-13T20:15:41.254Z,100413.22
2023-01-13T20:18:26.403Z,100433.72
2023-01-13T20:21:11.372Z,100450.16
2023-01-13T20:23:56.124Z,100455.13
2023-01-13T20:26:41.032Z,100476.63
2023-01-13T20:29:25.946Z,100487.09
2023-01-13T20:32:10.755Z,100474.16
2023-01-13T20:34:56.214Z,100463.69
2023-01-13T20:37:42.707Z,100477.56
2023-01-13T20:40:28.057Z,100471.59
2023-01-13T20:43:13.465Z,100480.00
2023-01-13T20:45:58.709Z,100478.25
2023-01-13T20:48:43.707Z,100484.25
2023-01-13T20:51:29.111Z,100487.03
2023-01-13T20:54:14.476Z,100494.88
2023-01-13T20:56:59.905Z,100497.56
2023-01-13T20:59:44.927Z,100499.53
2023-01-13T21:02:30.196Z,100508.13
2023-01-13T21:05:15.514Z,100516.22
2023-01-13T21:08:00.572Z,100501.91
2023-01-13T21:10:45.445Z,100501.16
2023-01-13T21:13:31.095Z,100498.69
2023-01-13T21:16:16.705Z,100502.28
2023-01-13T21:19:02.077Z,100502.38
2023-01-13T21:21:47.314Z,100512.72
2023-01-13T21:24:32.476Z,100503.50
2023-01-13T21:27:17.547Z,100513.09
2023-01-13T21:30:02.834Z,100510.59
2023-01-13T21:32:47.925Z,100512.50
2023-01-13T21:35:32.843Z,100514.44
2023-01-13T21:38:18.026Z,100521.41
2023-01-13T21:41:05.681Z,100510.28
2023-01-13T21:43:50.906Z,100519.69
2023-01-13T21:46:35.744Z,100510.19
2023-01-13T21:49:20.720Z,100515.34
2023-01-13T21:52:05.583Z,100505.13
2023-01-13T21:54:50.934Z,100502.50
2023-01-13T21:57:36.198Z,100513.66
2023-01-13T22:00:23.117Z,100502.50
2023-01-13T22:03:09.413Z,100521.41
2023-01-13T22:05:55.233Z,100538.38
2023-01-13T22:08:40.285Z,100522.28
2023-01-13T22:11:26.329Z,100531.69
2023-01-13T22:14:11.944Z,100526.38
2023-01-13T22:16:57.113Z,100546.75
2023-01-13T22:19:42.641Z,100543.25
2023-01-13T22:22:28.418Z,100559.78
2023-01-13T22:25:14.935Z,100549.06
2023-01-13T22:28:00.174Z,100556.56
2023-01-13T22:30:45.574Z,100553.56
2023-01-13T22:33:30.826Z,100564.59
2023-01-13T22:36:15.917Z,100562.03
2023-01-13T22:39:01.326Z,100562.91
2023-01-13T22:41:46.508Z,100572.50
2023-01-13T22:44:32.606Z,100572.50
2023-01-13T22:47:18.208Z,100582.97
2023-01-13T22:50:04.050Z,100579.41
2023-01-13T22:52:49.271Z,100578.38
2023-01-13T22:55:34.313Z,100583.66
2023-01-13T22:58:19.230Z,100596.72
2023-01-13T23:01:23.318Z,100600.06
2023-01-13T23:04:11.501Z,100580.06
2023-01-13T23:06:56.643Z,100585.41
2023-01-13T23:09:42.714Z,100591.31
2023-01-13T23:12:27.807Z,100591.34
2023-01-13T23:15:12.863Z,100593.78
2023-01-13T23:17:57.542Z,100605.88
2023-01-13T23:20:42.404Z,100609.56
2023-01-13T23:23:27.713Z,100610.66
2023-01-13T23:26:13.533Z,100598.63
2023-01-13T23:29:00.660Z,100602.09
2023-01-13T23:31:45.765Z,100601.31
2023-01-13T23:34:31.166Z,100597.03
2023-01-13T23:37:16.491Z,100582.41
2023-01-13T23:40:01.403Z,100587.66
2023-01-13T23:42:46.209Z,100580.06
2023-01-13T23:45:31.112Z,100562.00
2023-01-13T23:48:16.052Z,100562.88
2023-01-13T23:51:03.659Z,100562.88
2023-01-13T23:53:50.413Z,100562.84
2023-01-13T23:56:35.465Z,100573.72
2023-01-13T23:59:21.145Z,100563.25
